sensor_id;sensor_type;location;lat;lon;timestamp;temperature;humidity
70421;SHT31;57848;51.938;15.520;2023-02-28T00:00:08;1.75;65.18
70421;SHT31;57848;51.938;15.520;2023-02-28T00:02:37;1.78;64.69
70421;SHT31;57848;51.938;15.520;2023-02-28T00:05:04;1.78;64.17
70421;SHT31;57848;51.938;15.520;2023-02-28T00:07:30;1.69;64.03
70421;SHT31;57848;51.938;15.520;2023-02-28T00:10:04;1.78;62.09
70421;SHT31;57848;51.938;15.520;2023-02-28T00:12:32;1.78;62.37
70421;SHT31;57848;51.938;15.520;2023-02-28T00:14:57;1.81;61.70
70421;SHT31;57848;51.938;15.520;2023-02-28T00:17:22;1.78;61.60
70421;SHT31;57848;51.938;15.520;2023-02-28T00:19:49;1.87;60.50
70421;SHT31;57848;51.938;15.520;2023-02-28T00:22:19;1.81;60.24
70421;SHT31;57848;51.938;15.520;2023-02-28T00:24:45;1.83;59.86
70421;SHT31;57848;51.938;15.520;2023-02-28T00:27:12;1.86;60.87
70421;SHT31;57848;51.938;15.520;2023-02-28T00:29:38;1.78;60.47
70421;SHT31;57848;51.938;15.520;2023-02-28T00:32:04;1.85;61.21
70421;SHT31;57848;51.938;15.520;2023-02-28T00:34:30;1.81;61.45
70421;SHT31;57848;51.938;15.520;2023-02-28T00:36:56;1.85;61.69
70421;SHT31;57848;51.938;15.520;2023-02-28T00:39:21;1.81;61.61
70421;SHT31;57848;51.938;15.520;2023-02-28T00:41:47;1.81;62.35
70421;SHT31;57848;51.938;15.520;2023-02-28T00:44:13;1.79;63.78
70421;SHT31;57848;51.938;15.520;2023-02-28T00:46:38;1.69;64.20
70421;SHT31;57848;51.938;15.520;2023-02-28T00:49:04;1.85;63.35
70421;SHT31;57848;51.938;15.520;2023-02-28T00:51:29;1.76;63.98
70421;SHT31;57848;51.938;15.520;2023-02-28T00:53:56;1.72;64.85
70421;SHT31;57848;51.938;15.520;2023-02-28T00:56:22;1.71;64.85
70421;SHT31;57848;51.938;15.520;2023-02-28T00:58:48;1.68;65.89
70421;SHT31;57848;51.938;15.520;2023-02-28T01:01:13;1.64;66.40
70421;SHT31;57848;51.938;15.520;2023-02-28T01:03:39;1.68;66.43
70421;SHT31;57848;51.938;15.520;2023-02-28T01:06:04;1.65;66.91
70421;SHT31;57848;51.938;15.520;2023-02-28T01:08:30;1.62;66.61
70421;SHT31;57848;51.938;15.520;2023-02-28T01:10:56;1.59;66.69
70421;SHT31;57848;51.938;15.520;2023-02-28T01:13:21;1.59;66.46
70421;SHT31;57848;51.938;15.520;2023-02-28T01:15:54;1.55;66.88
70421;SHT31;57848;51.938;15.520;2023-02-28T01:18:20;1.56;67.46
70421;SHT31;57848;51.938;15.520;2023-02-28T01:20:46;1.51;67.64
70421;SHT31;57848;51.938;15.520;2023-02-28T01:23:11;1.48;67.69
70421;SHT31;57848;51.938;15.520;2023-02-28T01:25:37;1.45;68.15
70421;SHT31;57848;51.938;15.520;2023-02-28T01:28:04;1.51;67.92
70421;SHT31;57848;51.938;15.520;2023-02-28T01:30:30;1.54;68.26
70421;SHT31;57848;51.938;15.520;2023-02-28T01:32:56;1.54;67.94
70421;SHT31;57848;51.938;15.520;2023-02-28T01:35:21;1.52;68.66
70421;SHT31;57848;51.938;15.520;2023-02-28T01:37:47;1.48;67.78
70421;SHT31;57848;51.938;15.520;2023-02-28T01:40:13;1.45;68.43
70421;SHT31;57848;51.938;15.520;2023-02-28T01:42:38;1.48;69.77
70421;SHT31;57848;51.938;15.520;2023-02-28T01:47:36;1.54;68.99
70421;SHT31;57848;51.938;15.520;2023-02-28T01:50:06;1.54;69.41
70421;SHT31;57848;51.938;15.520;2023-02-28T01:52:32;1.54;69.10
70421;SHT31;57848;51.938;15.520;2023-02-28T01:55:01;1.52;69.08
70421;SHT31;57848;51.938;15.520;2023-02-28T01:57:32;1.48;69.48
70421;SHT31;57848;51.938;15.520;2023-02-28T02:00:13;1.47;69.87
70421;SHT31;57848;51.938;15.520;2023-02-28T02:02:47;1.48;69.32
70421;SHT31;57848;51.938;15.520;2023-02-28T02:05:17;1.44;69.92
70421;SHT31;57848;51.938;15.520;2023-02-28T02:07:44;1.44;69.49
70421;SHT31;57848;51.938;15.520;2023-02-28T02:10:30;1.50;69.90
70421;SHT31;57848;51.938;15.520;2023-02-28T02:15:55;1.41;70.10
70421;SHT31;57848;51.938;15.520;2023-02-28T02:25:04;1.35;69.94
70421;SHT31;57848;51.938;15.520;2023-02-28T02:28:07;1.26;69.99
70421;SHT31;57848;51.938;15.520;2023-02-28T02:30:58;1.24;69.98
70421;SHT31;57848;51.938;15.520;2023-02-28T02:36:24;1.07;70.16
70421;SHT31;57848;51.938;15.520;2023-02-28T02:39:02;1.00;69.43
70421;SHT31;57848;51.938;15.520;2023-02-28T02:41:51;0.89;69.92
70421;SHT31;57848;51.938;15.520;2023-02-28T02:44:30;0.97;70.78
70421;SHT31;57848;51.938;15.520;2023-02-28T02:47:05;0.89;70.53
70421;SHT31;57848;51.938;15.520;2023-02-28T02:49:35;0.89;70.55
70421;SHT31;57848;51.938;15.520;2023-02-28T02:52:07;0.87;70.69
70421;SHT31;57848;51.938;15.520;2023-02-28T02:54:37;0.83;70.73
70421;SHT31;57848;51.938;15.520;2023-02-28T02:57:07;0.70;71.19
70421;SHT31;57848;51.938;15.520;2023-02-28T02:59:35;0.66;71.44
70421;SHT31;57848;51.938;15.520;2023-02-28T03:02:05;0.69;71.13
70421;SHT31;57848;51.938;15.520;2023-02-28T03:04:35;0.65;71.26
70421;SHT31;57848;51.938;15.520;2023-02-28T03:07:03;0.62;71.82
70421;SHT31;57848;51.938;15.520;2023-02-28T03:09:28;0.59;72.00
70421;SHT31;57848;51.938;15.520;2023-02-28T03:11:55;0.59;72.14
70421;SHT31;57848;51.938;15.520;2023-02-28T03:23:02;0.48;72.03
70421;SHT31;57848;51.938;15.520;2023-02-28T03:25:48;0.46;72.47
70421;SHT31;57848;51.938;15.520;2023-02-28T03:28:31;0.54;72.89
70421;SHT31;57848;51.938;15.520;2023-02-28T03:31:09;0.51;72.20
70421;SHT31;57848;51.938;15.520;2023-02-28T03:33:39;0.48;71.68
70421;SHT31;57848;51.938;15.520;2023-02-28T03:36:12;0.45;71.43
70421;SHT31;57848;51.938;15.520;2023-02-28T03:41:19;0.44;72.16
70421;SHT31;57848;51.938;15.520;2023-02-28T03:44:00;0.41;72.27
70421;SHT31;57848;51.938;15.520;2023-02-28T03:46:31;0.41;71.89
70421;SHT31;57848;51.938;15.520;2023-02-28T03:49:02;0.38;72.30
70421;SHT31;57848;51.938;15.520;2023-02-28T03:51:30;0.26;72.32
70421;SHT31;57848;51.938;15.520;2023-02-28T03:54:01;0.19;72.21
70421;SHT31;57848;51.938;15.520;2023-02-28T03:56:39;0.18;72.85
70421;SHT31;57848;51.938;15.520;2023-02-28T03:59:20;0.18;72.77
70421;SHT31;57848;51.938;15.520;2023-02-28T04:01:50;0.14;73.26
70421;SHT31;57848;51.938;15.520;2023-02-28T04:04:16;0.10;73.41
70421;SHT31;57848;51.938;15.520;2023-02-28T04:06:42;0.11;74.00
70421;SHT31;57848;51.938;15.520;2023-02-28T04:09:11;0.11;73.75
70421;SHT31;57848;51.938;15.520;2023-02-28T04:11:39;0.08;74.19
70421;SHT31;57848;51.938;15.520;2023-02-28T04:14:06;0.17;74.08
70421;SHT31;57848;51.938;15.520;2023-02-28T04:16:34;0.14;74.43
70421;SHT31;57848;51.938;15.520;2023-02-28T04:19:01;0.18;74.45
70421;SHT31;57848;51.938;15.520;2023-02-28T04:21:36;0.25;74.42
70421;SHT31;57848;51.938;15.520;2023-02-28T04:24:02;0.22;75.00
70421;SHT31;57848;51.938;15.520;2023-02-28T04:26:35;0.24;75.12
70421;SHT31;57848;51.938;15.520;2023-02-28T04:29:03;0.15;75.27
70421;SHT31;57848;51.938;15.520;2023-02-28T04:31:28;0.26;74.90
70421;SHT31;57848;51.938;15.520;2023-02-28T04:33:54;0.24;75.05
70421;SHT31;57848;51.938;15.520;2023-02-28T04:36:19;0.31;75.18
70421;SHT31;57848;51.938;15.520;2023-02-28T04:38:45;0.15;75.28
70421;SHT31;57848;51.938;15.520;2023-02-28T04:41:12;0.22;75.09
70421;SHT31;57848;51.938;15.520;2023-02-28T04:43:37;0.21;75.60
70421;SHT31;57848;51.938;15.520;2023-02-28T04:46:04;0.21;75.74
70421;SHT31;57848;51.938;15.520;2023-02-28T04:48:32;0.25;75.21
70421;SHT31;57848;51.938;15.520;2023-02-28T04:51:07;0.22;75.52
70421;SHT31;57848;51.938;15.520;2023-02-28T04:53:33;0.18;75.81
70421;SHT31;57848;51.938;15.520;2023-02-28T04:55:59;0.08;76.16
70421;SHT31;57848;51.938;15.520;2023-02-28T04:58:24;0.04;75.97
70421;SHT31;57848;51.938;15.520;2023-02-28T05:00:53;0.01;76.51
70421;SHT31;57848;51.938;15.520;2023-02-28T05:03:19;-0.02;76.89
70421;SHT31;57848;51.938;15.520;2023-02-28T05:05:46;-0.13;77.23
70421;SHT31;57848;51.938;15.520;2023-02-28T05:08:12;-0.17;77.56
70421;SHT31;57848;51.938;15.520;2023-02-28T05:10:37;-0.17;77.33
70421;SHT31;57848;51.938;15.520;2023-02-28T05:13:03;-0.30;77.60
70421;SHT31;57848;51.938;15.520;2023-02-28T05:15:28;-0.27;77.70
70421;SHT31;57848;51.938;15.520;2023-02-28T05:17:54;-0.24;77.98
70421;SHT31;57848;51.938;15.520;2023-02-28T05:20:19;-0.18;77.75
70421;SHT31;57848;51.938;15.520;2023-02-28T05:22:46;-0.33;78.23
70421;SHT31;57848;51.938;15.520;2023-02-28T05:25:16;-0.41;78.51
70421;SHT31;57848;51.938;15.520;2023-02-28T05:27:42;-0.53;79.18
70421;SHT31;57848;51.938;15.520;2023-02-28T05:30:08;-0.42;78.69
70421;SHT31;57848;51.938;15.520;2023-02-28T05:32:39;-0.55;79.44
70421;SHT31;57848;51.938;15.520;2023-02-28T05:35:09;-0.58;79.48
70421;SHT31;57848;51.938;15.520;2023-02-28T05:37:35;-0.60;79.34
70421;SHT31;57848;51.938;15.520;2023-02-28T05:40:01;-0.55;79.28
70421;SHT31;57848;51.938;15.520;2023-02-28T05:42:27;-0.61;79.55
70421;SHT31;57848;51.938;15.520;2023-02-28T05:44:52;-0.57;79.57
70421;SHT31;57848;51.938;15.520;2023-02-28T05:47:17;-0.48;79.55
70421;SHT31;57848;51.938;15.520;2023-02-28T05:49:43;-0.61;79.81
70421;SHT31;57848;51.938;15.520;2023-02-28T05:52:08;-0.61;79.68
70421;SHT31;57848;51.938;15.520;2023-02-28T05:54:34;-0.65;79.81
70421;SHT31;57848;51.938;15.520;2023-02-28T05:56:59;-0.71;80.07
70421;SHT31;57848;51.938;15.520;2023-02-28T05:59:24;-0.61;79.95
70421;SHT31;57848;51.938;15.520;2023-02-28T06:01:50;-0.76;80.12
70421;SHT31;57848;51.938;15.520;2023-02-28T06:04:18;-0.72;80.44
70421;SHT31;57848;51.938;15.520;2023-02-28T06:06:45;-0.72;80.06
70421;SHT31;57848;51.938;15.520;2023-02-28T06:09:11;-0.66;80.24
70421;SHT31;57848;51.938;15.520;2023-02-28T06:11:36;-0.71;80.49
70421;SHT31;57848;51.938;15.520;2023-02-28T06:14:04;-0.69;80.53
70421;SHT31;57848;51.938;15.520;2023-02-28T06:16:31;-0.64;80.16
70421;SHT31;57848;51.938;15.520;2023-02-28T06:18:58;-0.69;80.53
70421;SHT31;57848;51.938;15.520;2023-02-28T06:21:24;-0.74;80.85
70421;SHT31;57848;51.938;15.520;2023-02-28T06:23:49;-0.72;80.85
70421;SHT31;57848;51.938;15.520;2023-02-28T06:26:15;-0.71;80.47
70421;SHT31;57848;51.938;15.520;2023-02-28T06:28:41;-0.74;80.46
70421;SHT31;57848;51.938;15.520;2023-02-28T06:31:12;-0.66;80.26
70421;SHT31;57848;51.938;15.520;2023-02-28T06:33:39;-0.55;79.86
70421;SHT31;57848;51.938;15.520;2023-02-28T06:36:06;-0.55;79.77
70421;SHT31;57848;51.938;15.520;2023-02-28T06:38:32;-0.55;79.58
70421;SHT31;57848;51.938;15.520;2023-02-28T06:40:59;-0.50;79.52
70421;SHT31;57848;51.938;15.520;2023-02-28T06:43:29;-0.47;79.91
70421;SHT31;57848;51.938;15.520;2023-02-28T06:45:56;-0.47;79.84
70421;SHT31;57848;51.938;15.520;2023-02-28T06:48:21;-0.35;79.78
70421;SHT31;57848;51.938;15.520;2023-02-28T06:50:47;-0.24;79.48
70421;SHT31;57848;51.938;15.520;2023-02-28T06:53:12;-0.34;79.42
70421;SHT31;57848;51.938;15.520;2023-02-28T06:58:13;-0.23;79.37
70421;SHT31;57848;51.938;15.520;2023-02-28T07:00:44;-0.14;78.90
70421;SHT31;57848;51.938;15.520;2023-02-28T07:03:10;-0.14;78.69
70421;SHT31;57848;51.938;15.520;2023-02-28T07:05:37;-0.09;78.05
70421;SHT31;57848;51.938;15.520;2023-02-28T07:08:03;-0.04;77.79
70421;SHT31;57848;51.938;15.520;2023-02-28T07:10:29;0.07;77.31
70421;SHT31;57848;51.938;15.520;2023-02-28T07:12:55;0.10;76.92
70421;SHT31;57848;51.938;15.520;2023-02-28T07:15:20;0.19;76.84
70421;SHT31;57848;51.938;15.520;2023-02-28T07:17:46;0.25;75.87
70421;SHT31;57848;51.938;15.520;2023-02-28T07:20:11;0.26;76.13
70421;SHT31;57848;51.938;15.520;2023-02-28T07:22:37;0.35;76.29
70421;SHT31;57848;51.938;15.520;2023-02-28T07:25:04;0.38;75.49
70421;SHT31;57848;51.938;15.520;2023-02-28T07:27:29;0.51;74.74
70421;SHT31;57848;51.938;15.520;2023-02-28T07:29:55;0.52;74.71
70421;SHT31;57848;51.938;15.520;2023-02-28T07:32:21;0.66;72.52
70421;SHT31;57848;51.938;15.520;2023-02-28T07:34:47;0.61;73.38
70421;SHT31;57848;51.938;15.520;2023-02-28T07:37:14;0.61;74.51
70421;SHT31;57848;51.938;15.520;2023-02-28T07:39:39;0.68;74.32
70421;SHT31;57848;51.938;15.520;2023-02-28T07:42:07;0.72;73.82
70421;SHT31;57848;51.938;15.520;2023-02-28T07:44:35;0.85;73.73
70421;SHT31;57848;51.938;15.520;2023-02-28T07:47:08;0.85;73.41
70421;SHT31;57848;51.938;15.520;2023-02-28T07:49:35;0.83;72.84
70421;SHT31;57848;51.938;15.520;2023-02-28T07:52:02;0.92;72.44
70421;SHT31;57848;51.938;15.520;2023-02-28T07:54:27;0.90;72.08
70421;SHT31;57848;51.938;15.520;2023-02-28T07:56:53;0.94;72.25
70421;SHT31;57848;51.938;15.520;2023-02-28T07:59:18;0.97;72.21
70421;SHT31;57848;51.938;15.520;2023-02-28T08:01:43;1.03;72.36
70421;SHT31;57848;51.938;15.520;2023-02-28T08:04:09;1.08;71.45
70421;SHT31;57848;51.938;15.520;2023-02-28T08:06:35;1.28;70.28
70421;SHT31;57848;51.938;15.520;2023-02-28T08:11:42;1.30;71.36
70421;SHT31;57848;51.938;15.520;2023-02-28T08:14:07;1.31;70.14
70421;SHT31;57848;51.938;15.520;2023-02-28T08:16:33;1.30;69.55
70421;SHT31;57848;51.938;15.520;2023-02-28T08:18:58;1.34;69.45
70421;SHT31;57848;51.938;15.520;2023-02-28T08:21:24;1.41;69.38
70421;SHT31;57848;51.938;15.520;2023-02-28T08:23:50;1.47;69.61
70421;SHT31;57848;51.938;15.520;2023-02-28T08:26:17;1.68;65.94
70421;SHT31;57848;51.938;15.520;2023-02-28T08:28:42;1.75;67.27
70421;SHT31;57848;51.938;15.520;2023-02-28T08:31:10;1.93;66.28
70421;SHT31;57848;51.938;15.520;2023-02-28T08:33:37;1.96;65.54
70421;SHT31;57848;51.938;15.520;2023-02-28T08:36:05;1.99;64.83
70421;SHT31;57848;51.938;15.520;2023-02-28T08:38:30;1.98;64.28
70421;SHT31;57848;51.938;15.520;2023-02-28T08:41:00;2.02;64.48
70421;SHT31;57848;51.938;15.520;2023-02-28T08:43:27;2.16;63.86
70421;SHT31;57848;51.938;15.520;2023-02-28T08:45:53;2.15;63.23
70421;SHT31;57848;51.938;15.520;2023-02-28T08:48:19;2.27;62.23
70421;SHT31;57848;51.938;15.520;2023-02-28T08:50:54;2.29;61.70
70421;SHT31;57848;51.938;15.520;2023-02-28T08:53:20;2.34;59.42
70421;SHT31;57848;51.938;15.520;2023-02-28T08:55:45;2.41;58.40
70421;SHT31;57848;51.938;15.520;2023-02-28T08:58:11;2.40;59.66
70421;SHT31;57848;51.938;15.520;2023-02-28T09:00:36;2.47;59.14
70421;SHT31;57848;51.938;15.520;2023-02-28T09:03:01;2.50;58.22
70421;SHT31;57848;51.938;15.520;2023-02-28T09:05:27;2.50;58.25
70421;SHT31;57848;51.938;15.520;2023-02-28T09:07:54;2.48;58.42
70421;SHT31;57848;51.938;15.520;2023-02-28T09:10:19;2.48;58.50
70421;SHT31;57848;51.938;15.520;2023-02-28T09:12:45;2.44;59.72
70421;SHT31;57848;51.938;15.520;2023-02-28T09:15:12;2.47;59.42
70421;SHT31;57848;51.938;15.520;2023-02-28T09:17:37;2.44;59.34
70421;SHT31;57848;51.938;15.520;2023-02-28T09:20:04;2.50;59.95
70421;SHT31;57848;51.938;15.520;2023-02-28T09:22:30;2.51;59.44
70421;SHT31;57848;51.938;15.520;2023-02-28T09:24:55;2.50;60.38
70421;SHT31;57848;51.938;15.520;2023-02-28T09:27:21;2.53;60.06
70421;SHT31;57848;51.938;15.520;2023-02-28T09:29:46;2.53;60.25
70421;SHT31;57848;51.938;15.520;2023-02-28T09:32:12;2.67;60.36
70421;SHT31;57848;51.938;15.520;2023-02-28T09:34:37;2.73;60.24
70421;SHT31;57848;51.938;15.520;2023-02-28T09:37:04;2.71;61.11
70421;SHT31;57848;51.938;15.520;2023-02-28T09:39:29;2.77;60.87
70421;SHT31;57848;51.938;15.520;2023-02-28T09:41:55;2.95;59.94
70421;SHT31;57848;51.938;15.520;2023-02-28T09:46:59;3.19;59.53
70421;SHT31;57848;51.938;15.520;2023-02-28T09:49:33;3.39;59.27
70421;SHT31;57848;51.938;15.520;2023-02-28T09:52:05;3.98;57.18
70421;SHT31;57848;51.938;15.520;2023-02-28T09:54:35;4.35;55.38
70421;SHT31;57848;51.938;15.520;2023-02-28T09:57:02;4.08;55.58
70421;SHT31;57848;51.938;15.520;2023-02-28T10:05:17;4.35;56.39
70421;SHT31;57848;51.938;15.520;2023-02-28T10:10:39;5.90;54.11
70421;SHT31;57848;51.938;15.520;2023-02-28T10:13:13;7.81;49.34
70421;SHT31;57848;51.938;15.520;2023-02-28T10:15:40;9.69;44.12
70421;SHT31;57848;51.938;15.520;2023-02-28T10:18:11;10.83;41.50
70421;SHT31;57848;51.938;15.520;2023-02-28T10:20:39;9.94;40.24
70421;SHT31;57848;51.938;15.520;2023-02-28T10:25:54;10.05;41.87
70421;SHT31;57848;51.938;15.520;2023-02-28T10:28:20;10.97;40.02
70421;SHT31;57848;51.938;15.520;2023-02-28T10:30:51;10.86;39.96
70421;SHT31;57848;51.938;15.520;2023-02-28T10:33:34;11.03;40.08
70421;SHT31;57848;51.938;15.520;2023-02-28T10:36:01;11.37;39.00
70421;SHT31;57848;51.938;15.520;2023-02-28T10:38:38;12.44;38.06
70421;SHT31;57848;51.938;15.520;2023-02-28T10:41:12;13.02;37.25
70421;SHT31;57848;51.938;15.520;2023-02-28T10:43:39;12.80;37.34
70421;SHT31;57848;51.938;15.520;2023-02-28T10:46:13;11.10;39.23
70421;SHT31;57848;51.938;15.520;2023-02-28T10:48:44;9.72;42.54
70421;SHT31;57848;51.938;15.520;2023-02-28T10:51:14;8.84;44.17
70421;SHT31;57848;51.938;15.520;2023-02-28T11:01:35;10.17;43.49
70421;SHT31;57848;51.938;15.520;2023-02-28T11:04:01;10.56;40.54
70421;SHT31;57848;51.938;15.520;2023-02-28T11:06:33;9.67;41.25
70421;SHT31;57848;51.938;15.520;2023-02-28T11:09:02;10.27;41.50
70421;SHT31;57848;51.938;15.520;2023-02-28T11:11:30;11.38;39.95
70421;SHT31;57848;51.938;15.520;2023-02-28T11:14:16;11.54;38.86
70421;SHT31;57848;51.938;15.520;2023-02-28T11:16:42;11.16;38.56
70421;SHT31;57848;51.938;15.520;2023-02-28T11:19:18;9.60;42.10
70421;SHT31;57848;51.938;15.520;2023-02-28T11:21:55;8.54;43.54
70421;SHT31;57848;51.938;15.520;2023-02-28T11:24:35;7.92;46.09
70421;SHT31;57848;51.938;15.520;2023-02-28T11:27:01;7.68;47.35
70421;SHT31;57848;51.938;15.520;2023-02-28T11:29:32;9.77;42.44
70421;SHT31;57848;51.938;15.520;2023-02-28T11:32:20;11.61;38.34
70421;SHT31;57848;51.938;15.520;2023-02-28T11:35:01;12.64;35.28
70421;SHT31;57848;51.938;15.520;2023-02-28T11:37:28;14.71;33.49
70421;SHT31;57848;51.938;15.520;2023-02-28T11:39:53;15.68;31.89
70421;SHT31;57848;51.938;15.520;2023-02-28T11:48:38;13.15;35.26
70421;SHT31;57848;51.938;15.520;2023-02-28T11:51:14;14.13;34.28
70421;SHT31;57848;51.938;15.520;2023-02-28T11:57:01;14.72;33.11
70421;SHT31;57848;51.938;15.520;2023-02-28T12:10:25;12.06;36.80
70421;SHT31;57848;51.938;15.520;2023-02-28T12:18:55;11.89;37.19
70421;SHT31;57848;51.938;15.520;2023-02-28T12:21:55;12.60;36.18
70421;SHT31;57848;51.938;15.520;2023-02-28T12:25:02;13.42;35.23
70421;SHT31;57848;51.938;15.520;2023-02-28T12:27:37;13.66;34.41
70421;SHT31;57848;51.938;15.520;2023-02-28T12:32:54;15.39;32.20
70421;SHT31;57848;51.938;15.520;2023-02-28T12:35:26;15.41;31.46
70421;SHT31;57848;51.938;15.520;2023-02-28T12:37:58;15.16;32.33
70421;SHT31;57848;51.938;15.520;2023-02-28T12:40:31;14.59;32.49
70421;SHT31;57848;51.938;15.520;2023-02-28T12:43:03;13.70;33.59
70421;SHT31;57848;51.938;15.520;2023-02-28T12:48:07;10.75;39.32
70421;SHT31;57848;51.938;15.520;2023-02-28T12:50:33;10.08;41.19
70421;SHT31;57848;51.938;15.520;2023-02-28T12:53:10;9.34;42.95
70421;SHT31;57848;51.938;15.520;2023-02-28T12:58:37;8.61;43.57
70421;SHT31;57848;51.938;15.520;2023-02-28T13:04:32;7.48;46.26
70421;SHT31;57848;51.938;15.520;2023-02-28T13:09:54;7.16;46.74
70421;SHT31;57848;51.938;15.520;2023-02-28T13:12:20;6.86;47.36
70421;SHT31;57848;51.938;15.520;2023-02-28T13:14:48;6.64;48.62
70421;SHT31;57848;51.938;15.520;2023-02-28T13:17:23;6.72;48.19
70421;SHT31;57848;51.938;15.520;2023-02-28T13:24:52;6.64;49.31
70421;SHT31;57848;51.938;15.520;2023-02-28T13:27:24;6.54;49.33
70421;SHT31;57848;51.938;15.520;2023-02-28T13:29:51;6.52;49.45
70421;SHT31;57848;51.938;15.520;2023-02-28T13:32:30;6.52;49.60
70421;SHT31;57848;51.938;15.520;2023-02-28T13:40:26;6.58;50.25
70421;SHT31;57848;51.938;15.520;2023-02-28T13:42:52;6.44;50.22
70421;SHT31;57848;51.938;15.520;2023-02-28T13:48:00;6.18;49.91
70421;SHT31;57848;51.938;15.520;2023-02-28T13:50:27;6.18;50.73
70421;SHT31;57848;51.938;15.520;2023-02-28T14:04:14;5.77;50.62
70421;SHT31;57848;51.938;15.520;2023-02-28T14:06:56;5.60;51.03
70421;SHT31;57848;51.938;15.520;2023-02-28T14:09:29;5.58;50.18
70421;SHT31;57848;51.938;15.520;2023-02-28T14:11:56;5.51;50.92
70421;SHT31;57848;51.938;15.520;2023-02-28T14:17:07;5.32;50.79
70421;SHT31;57848;51.938;15.520;2023-02-28T14:19:34;5.44;50.56
70421;SHT31;57848;51.938;15.520;2023-02-28T14:27:48;5.28;50.82
70421;SHT31;57848;51.938;15.520;2023-02-28T14:30:56;5.23;51.28
70421;SHT31;57848;51.938;15.520;2023-02-28T14:36:27;5.07;51.42
70421;SHT31;57848;51.938;15.520;2023-02-28T14:39:04;5.05;51.13
70421;SHT31;57848;51.938;15.520;2023-02-28T14:41:32;5.07;51.27
70421;SHT31;57848;51.938;15.520;2023-02-28T14:44:01;5.03;51.81
70421;SHT31;57848;51.938;15.520;2023-02-28T14:46:37;5.03;51.44
70421;SHT31;57848;51.938;15.520;2023-02-28T14:49:07;4.94;52.16
70421;SHT31;57848;51.938;15.520;2023-02-28T14:51:36;4.80;52.10
70421;SHT31;57848;51.938;15.520;2023-02-28T14:54:03;4.69;52.27
70421;SHT31;57848;51.938;15.520;2023-02-28T14:56:38;4.69;53.66
70421;SHT31;57848;51.938;15.520;2023-02-28T14:59:05;4.72;53.79
70421;SHT31;57848;51.938;15.520;2023-02-28T15:01:30;4.66;53.34
70421;SHT31;57848;51.938;15.520;2023-02-28T15:04:03;4.60;53.26
70421;SHT31;57848;51.938;15.520;2023-02-28T15:06:29;4.52;53.76
70421;SHT31;57848;51.938;15.520;2023-02-28T15:09:10;4.45;53.60
70421;SHT31;57848;51.938;15.520;2023-02-28T15:11:37;4.41;53.80
70421;SHT31;57848;51.938;15.520;2023-02-28T15:14:04;4.39;53.46
70421;SHT31;57848;51.938;15.520;2023-02-28T15:16:34;4.41;53.61
70421;SHT31;57848;51.938;15.520;2023-02-28T15:21:34;4.38;53.44
70421;SHT31;57848;51.938;15.520;2023-02-28T15:24:05;4.36;53.24
70421;SHT31;57848;51.938;15.520;2023-02-28T15:26:36;4.32;54.23
70421;SHT31;57848;51.938;15.520;2023-02-28T15:29:15;4.26;54.49
70421;SHT31;57848;51.938;15.520;2023-02-28T15:31:58;4.25;54.61
70421;SHT31;57848;51.938;15.520;2023-02-28T15:34:32;4.15;54.79
70421;SHT31;57848;51.938;15.520;2023-02-28T15:36:58;4.19;54.76
70421;SHT31;57848;51.938;15.520;2023-02-28T15:39:26;4.11;55.10
70421;SHT31;57848;51.938;15.520;2023-02-28T15:41:55;4.05;55.85
70421;SHT31;57848;51.938;15.520;2023-02-28T15:44:34;4.02;55.55
70421;SHT31;57848;51.938;15.520;2023-02-28T15:47:01;4.04;56.15
70421;SHT31;57848;51.938;15.520;2023-02-28T15:49:27;3.93;56.17
70421;SHT31;57848;51.938;15.520;2023-02-28T15:51:56;3.85;55.72
70421;SHT31;57848;51.938;15.520;2023-02-28T15:54:27;3.85;57.03
70421;SHT31;57848;51.938;15.520;2023-02-28T15:56:56;3.87;57.19
70421;SHT31;57848;51.938;15.520;2023-02-28T15:59:28;3.77;57.60
70421;SHT31;57848;51.938;15.520;2023-02-28T16:02:15;3.63;57.96
70421;SHT31;57848;51.938;15.520;2023-02-28T16:05:01;3.56;57.64
70421;SHT31;57848;51.938;15.520;2023-02-28T16:07:28;3.53;58.19
70421;SHT31;57848;51.938;15.520;2023-02-28T16:09:54;3.46;58.19
70421;SHT31;57848;51.938;15.520;2023-02-28T16:12:25;3.43;57.95
70421;SHT31;57848;51.938;15.520;2023-02-28T16:14:52;3.36;58.45
70421;SHT31;57848;51.938;15.520;2023-02-28T16:17:24;3.27;59.00
70421;SHT31;57848;51.938;15.520;2023-02-28T16:19:50;3.22;59.01
70421;SHT31;57848;51.938;15.520;2023-02-28T16:22:15;3.19;59.61
70421;SHT31;57848;51.938;15.520;2023-02-28T16:24:41;3.09;59.77
70421;SHT31;57848;51.938;15.520;2023-02-28T16:27:15;3.08;59.70
70421;SHT31;57848;51.938;15.520;2023-02-28T16:29:41;3.02;59.75
70421;SHT31;57848;51.938;15.520;2023-02-28T16:32:07;3.05;59.91
70421;SHT31;57848;51.938;15.520;2023-02-28T16:34:32;2.98;60.12
70421;SHT31;57848;51.938;15.520;2023-02-28T16:36:58;2.92;60.38
70421;SHT31;57848;51.938;15.520;2023-02-28T16:39:23;2.88;60.85
70421;SHT31;57848;51.938;15.520;2023-02-28T16:41:50;2.85;61.24
70421;SHT31;57848;51.938;15.520;2023-02-28T16:46:49;2.84;60.62
70421;SHT31;57848;51.938;15.520;2023-02-28T16:49:15;2.81;60.72
70421;SHT31;57848;51.938;15.520;2023-02-28T16:51:40;2.83;60.93
70421;SHT31;57848;51.938;15.520;2023-02-28T16:54:05;2.80;60.80
70421;SHT31;57848;51.938;15.520;2023-02-28T16:56:31;2.80;60.85
70421;SHT31;57848;51.938;15.520;2023-02-28T16:59:00;2.62;61.89
70421;SHT31;57848;51.938;15.520;2023-02-28T17:01:26;2.53;62.24
70421;SHT31;57848;51.938;15.520;2023-02-28T17:03:52;2.47;61.81
70421;SHT31;57848;51.938;15.520;2023-02-28T17:06:21;2.40;62.25
70421;SHT31;57848;51.938;15.520;2023-02-28T17:08:48;2.37;62.71
70421;SHT31;57848;51.938;15.520;2023-02-28T17:11:13;2.32;63.10
70421;SHT31;57848;51.938;15.520;2023-02-28T17:13:39;2.34;62.74
70421;SHT31;57848;51.938;15.520;2023-02-28T17:16:05;2.33;62.79
70421;SHT31;57848;51.938;15.520;2023-02-28T17:18:30;2.26;63.70
70421;SHT31;57848;51.938;15.520;2023-02-28T17:21:00;2.19;63.11
70421;SHT31;57848;51.938;15.520;2023-02-28T17:23:25;2.17;63.78
70421;SHT31;57848;51.938;15.520;2023-02-28T17:25:51;2.13;64.40
70421;SHT31;57848;51.938;15.520;2023-02-28T17:28:21;2.20;63.68
70421;SHT31;57848;51.938;15.520;2023-02-28T17:30:47;2.19;64.03
70421;SHT31;57848;51.938;15.520;2023-02-28T17:33:14;2.19;63.96
70421;SHT31;57848;51.938;15.520;2023-02-28T17:35:39;2.26;63.48
70421;SHT31;57848;51.938;15.520;2023-02-28T17:38:04;2.32;63.52
70421;SHT31;57848;51.938;15.520;2023-02-28T17:40:30;2.27;63.90
70421;SHT31;57848;51.938;15.520;2023-02-28T17:42:56;2.20;63.96
70421;SHT31;57848;51.938;15.520;2023-02-28T17:45:22;2.22;64.16
70421;SHT31;57848;51.938;15.520;2023-02-28T17:47:49;2.07;64.98
70421;SHT31;57848;51.938;15.520;2023-02-28T17:50:19;1.99;65.48
70421;SHT31;57848;51.938;15.520;2023-02-28T17:52:45;2.02;66.13